createdAt,value
2019-02-27T00:00:15.740Z,69.50
2019-02-27T00:02:42.711Z,70.30
2019-02-27T00:05:09.720Z,69.90
2019-02-27T00:07:36.766Z,69.40
2019-02-27T00:10:06.178Z,70.00
2019-02-27T00:12:32.757Z,70.30
2019-02-27T00:15:02.208Z,70.30
2019-02-27T00:17:28.653Z,70.10
2019-02-27T00:19:55.602Z,69.30
2019-02-27T00:22:22.672Z,69.30
2019-02-27T00:24:49.689Z,69.90
2019-02-27T00:27:16.672Z,70.50
2019-02-27T00:29:43.671Z,70.70
2019-02-27T00:32:10.712Z,69.80
2019-02-27T00:34:37.792Z,66.40
2019-02-27T00:37:05.229Z,65.60
2019-02-27T00:39:32.210Z,66.20
2019-02-27T00:41:59.214Z,66.50
2019-02-27T00:44:26.242Z,67.70
2019-02-27T00:46:53.289Z,68.60
2019-02-27T00:49:20.263Z,68.70
2019-02-27T00:51:47.265Z,68.90
2019-02-27T00:54:14.300Z,68.80
2019-02-27T00:56:44.849Z,68.50
2019-02-27T00:59:10.031Z,68.30
2019-02-27T01:01:36.926Z,68.20
2019-02-27T01:04:04.073Z,68.50
2019-02-27T01:06:31.076Z,68.20
2019-02-27T01:08:58.005Z,67.80
2019-02-27T01:11:24.914Z,67.30
2019-02-27T01:13:51.963Z,67.10
2019-02-27T01:16:18.946Z,66.60
2019-02-27T01:18:45.969Z,65.20
2019-02-27T01:21:12.998Z,66.30
2019-02-27T01:23:43.704Z,68.30
2019-02-27T01:26:08.925Z,68.50
2019-02-27T01:28:35.829Z,68.90
2019-02-27T01:31:02.848Z,68.90
2019-02-27T01:33:29.834Z,69.10
2019-02-27T01:35:56.876Z,69.10
2019-02-27T01:38:23.836Z,69.40
2019-02-27T01:40:51.528Z,70.50
2019-02-27T01:43:19.165Z,70.30
2019-02-27T01:45:46.097Z,68.80
2019-02-27T01:48:12.988Z,68.60
2019-02-27T01:50:39.949Z,68.60
2019-02-27T01:53:08.177Z,68.00
2019-02-27T01:55:35.217Z,67.50
2019-02-27T01:58:02.152Z,68.00
2019-02-27T02:00:29.197Z,68.20
2019-02-27T02:02:56.233Z,68.80
2019-02-27T02:05:27.203Z,67.80
2019-02-27T02:07:53.888Z,67.30
2019-02-27T02:10:20.944Z,67.60
2019-02-27T02:12:51.534Z,66.20
2019-02-27T02:15:52.130Z,66.10
2019-02-27T02:18:45.786Z,66.10
2019-02-27T02:21:56.896Z,66.00
2019-02-27T02:25:01.789Z,65.70
2019-02-27T02:28:25.981Z,65.80
2019-02-27T02:31:19.488Z,66.30
2019-02-27T02:34:10.994Z,65.50
2019-02-27T02:37:15.755Z,66.20
2019-02-27T02:40:33.461Z,66.80
2019-02-27T02:43:57.240Z,66.40
2019-02-27T02:47:05.871Z,67.50
2019-02-27T02:50:04.281Z,67.10
2019-02-27T02:52:54.966Z,66.20
2019-02-27T02:56:23.949Z,66.10
2019-02-27T02:59:45.075Z,66.30
2019-02-27T03:03:02.028Z,66.80
2019-02-27T03:06:00.193Z,67.00
2019-02-27T03:08:54.997Z,66.30
2019-02-27T03:11:54.178Z,67.20
2019-02-27T03:14:54.529Z,66.00
2019-02-27T03:17:43.257Z,66.00
2019-02-27T03:20:36.189Z,66.90
2019-02-27T03:23:34.810Z,66.40
2019-02-27T03:26:16.910Z,66.30
2019-02-27T03:29:15.804Z,66.00
2019-02-27T03:31:57.823Z,66.10
2019-02-27T03:34:57.112Z,65.70
2019-02-27T03:38:05.933Z,64.70
2019-02-27T03:41:05.137Z,64.70
2019-02-27T03:43:55.862Z,64.30
2019-02-27T03:46:47.774Z,63.50
2019-02-27T03:49:39.511Z,62.70
2019-02-27T03:52:36.556Z,62.80
2019-02-27T03:55:31.903Z,64.20
2019-02-27T03:58:30.030Z,64.70
2019-02-27T04:01:31.431Z,65.80
2019-02-27T04:04:35.337Z,65.60
2019-02-27T04:07:24.425Z,66.00
2019-02-27T04:09:54.821Z,65.90
2019-02-27T04:12:20.617Z,65.40
2019-02-27T04:14:47.641Z,65.20
2019-02-27T04:17:14.671Z,66.10
2019-02-27T04:19:41.658Z,66.00
2019-02-27T04:22:08.559Z,65.50
2019-02-27T04:24:35.433Z,65.40
2019-02-27T04:27:02.384Z,65.30
2019-02-27T04:29:29.304Z,66.20
2019-02-27T04:31:56.239Z,66.40
2019-02-27T04:34:23.097Z,66.70
2019-02-27T04:36:50.054Z,66.80
2019-02-27T04:39:16.923Z,66.10
2019-02-27T04:41:43.951Z,65.60
2019-02-27T04:44:10.916Z,65.90
2019-02-27T04:46:37.936Z,66.20
2019-02-27T04:49:05.187Z,66.00
2019-02-27T04:51:32.264Z,65.80
2019-02-27T04:53:59.252Z,65.90
2019-02-27T04:56:26.228Z,65.80
2019-02-27T04:58:53.220Z,68.20
2019-02-27T05:01:20.104Z,68.80
2019-02-27T05:03:47.059Z,67.70
2019-02-27T05:06:14.552Z,64.90
2019-02-27T05:08:42.119Z,64.70
2019-02-27T05:11:09.164Z,64.80
2019-02-27T05:13:36.049Z,64.90
2019-02-27T05:16:03.036Z,65.50
2019-02-27T05:18:30.086Z,65.30
2019-02-27T05:20:57.192Z,65.80
2019-02-27T05:23:24.200Z,65.90
2019-02-27T05:25:51.186Z,65.90
2019-02-27T05:28:18.175Z,65.70
2019-02-27T05:30:45.841Z,66.00
2019-02-27T05:33:12.939Z,65.70
2019-02-27T05:35:39.909Z,65.60
2019-02-27T05:38:06.850Z,65.00
2019-02-27T05:40:33.853Z,65.00
2019-02-27T05:43:00.756Z,65.70
2019-02-27T05:45:30.392Z,65.30
2019-02-27T05:47:56.491Z,65.40
2019-02-27T05:50:23.448Z,64.40
2019-02-27T05:52:50.359Z,64.50
2019-02-27T05:55:17.337Z,64.80
2019-02-27T05:57:44.249Z,65.70
2019-02-27T06:00:13.477Z,65.80
2019-02-27T06:02:41.916Z,65.70
2019-02-27T06:05:09.598Z,65.30
2019-02-27T06:07:36.588Z,64.40
2019-02-27T06:10:04.405Z,64.50
2019-02-27T06:12:31.497Z,65.20
2019-02-27T06:14:58.412Z,65.10
2019-02-27T06:17:25.408Z,64.80
2019-02-27T06:19:52.393Z,64.20
2019-02-27T06:22:19.335Z,64.20
2019-02-27T06:24:46.390Z,63.90
2019-02-27T06:27:13.585Z,65.30
2019-02-27T06:29:40.576Z,65.10
2019-02-27T06:32:11.902Z,64.80
2019-02-27T06:34:36.521Z,65.50
2019-02-27T06:37:03.509Z,64.80
2019-02-27T06:39:34.130Z,64.60
2019-02-27T06:41:59.376Z,65.20
2019-02-27T06:44:26.409Z,65.50
2019-02-27T06:46:53.741Z,65.60
2019-02-27T06:49:21.763Z,65.60
2019-02-27T06:51:48.669Z,66.00
2019-02-27T06:54:18.170Z,65.40
2019-02-27T06:56:44.501Z,65.50
2019-02-27T06:59:11.521Z,64.70
2019-02-27T07:01:38.497Z,65.20
2019-02-27T07:04:05.526Z,64.60
2019-02-27T07:06:32.570Z,63.80
2019-02-27T07:08:59.548Z,63.50
2019-02-27T07:11:26.518Z,63.10
2019-02-27T07:13:53.400Z,63.60
2019-02-27T07:16:22.848Z,64.10
2019-02-27T07:18:49.471Z,64.40
2019-02-27T07:21:16.544Z,64.00
2019-02-27T07:23:43.573Z,62.20
2019-02-27T07:26:10.550Z,62.30
2019-02-27T07:28:37.469Z,62.30
2019-02-27T07:31:04.448Z,62.30
2019-02-27T07:33:31.352Z,61.60
2019-02-27T07:35:58.268Z,62.40
2019-02-27T07:38:25.619Z,61.50
2019-02-27T07:40:52.572Z,61.20
2019-02-27T07:43:19.532Z,61.40
2019-02-27T07:45:46.514Z,60.30
2019-02-27T07:48:13.527Z,60.00
2019-02-27T07:50:40.609Z,59.50
2019-02-27T07:53:07.569Z,58.90
2019-02-27T07:55:34.479Z,57.70
2019-02-27T07:58:01.512Z,56.50
2019-02-27T08:00:28.478Z,55.50
2019-02-27T08:02:55.507Z,54.90
2019-02-27T08:05:22.587Z,54.60
2019-02-27T08:07:49.954Z,54.70
2019-02-27T08:10:19.926Z,54.10
2019-02-27T08:12:46.975Z,53.90
2019-02-27T08:15:15.118Z,53.80
2019-02-27T08:17:42.112Z,53.60
2019-02-27T08:20:09.345Z,53.70
2019-02-27T08:22:38.068Z,53.80
2019-02-27T08:25:05.913Z,53.80
2019-02-27T08:27:32.864Z,53.80
2019-02-27T08:29:59.927Z,53.70
2019-02-27T08:32:27.180Z,53.40
2019-02-27T08:34:54.307Z,53.40
2019-02-27T08:37:21.477Z,53.60
2019-02-27T08:39:48.632Z,53.50
2019-02-27T08:42:15.825Z,53.50
2019-02-27T08:44:45.809Z,53.40
2019-02-27T08:47:13.187Z,53.40
2019-02-27T08:49:40.191Z,53.40
2019-02-27T08:52:08.525Z,53.30
2019-02-27T08:54:35.680Z,52.90
2019-02-27T08:57:02.700Z,51.70
2019-02-27T08:59:29.579Z,51.40
2019-02-27T09:01:56.725Z,50.70
2019-02-27T09:04:23.784Z,49.40
2019-02-27T09:06:51.782Z,48.60
2019-02-27T09:09:18.724Z,47.90
2019-02-27T09:11:45.750Z,46.10
2019-02-27T09:14:12.735Z,46.80
2019-02-27T09:16:39.754Z,46.50
2019-02-27T09:19:09.421Z,46.60
2019-02-27T09:21:35.507Z,45.60
2019-02-27T09:24:02.473Z,45.60
2019-02-27T09:26:29.390Z,43.60
2019-02-27T09:28:56.757Z,43.80
2019-02-27T09:31:23.774Z,43.60
2019-02-27T09:33:52.936Z,42.20
2019-02-27T09:36:19.564Z,42.90
2019-02-27T09:38:46.433Z,43.00
2019-02-27T09:41:13.790Z,43.90
2019-02-27T09:43:40.814Z,43.10
2019-02-27T09:46:07.781Z,43.70
2019-02-27T09:48:34.641Z,43.90
2019-02-27T09:51:01.656Z,44.10
2019-02-27T09:53:28.590Z,44.90
2019-02-27T09:55:55.590Z,43.80
2019-02-27T09:58:22.841Z,42.60
2019-02-27T10:00:59.187Z,43.90
2019-02-27T10:03:24.201Z,45.30
2019-02-27T10:05:51.209Z,45.30
2019-02-27T10:08:18.229Z,44.80
2019-02-27T10:10:46.023Z,45.30
2019-02-27T10:13:13.144Z,44.70
2019-02-27T10:15:40.084Z,44.70
2019-02-27T10:18:07.041Z,43.80
2019-02-27T10:20:36.965Z,43.20
2019-02-27T10:23:02.840Z,43.20
2019-02-27T10:25:30.920Z,42.80
2019-02-27T10:28:03.416Z,42.70
2019-02-27T10:30:26.805Z,42.30
2019-02-27T10:32:53.809Z,43.70
2019-02-27T10:35:20.728Z,44.00
2019-02-27T10:37:50.425Z,44.30
2019-02-27T10:40:17.217Z,44.30
2019-02-27T10:42:44.157Z,43.80
2019-02-27T10:45:11.555Z,43.50
2019-02-27T10:47:39.931Z,44.30
2019-02-27T10:50:07.411Z,43.70
2019-02-27T10:52:34.428Z,42.90
2019-02-27T10:55:01.292Z,42.70
2019-02-27T10:57:31.442Z,42.00
2019-02-27T10:59:59.197Z,41.70
2019-02-27T11:02:26.273Z,41.00
2019-02-27T11:04:53.174Z,40.10
2019-02-27T11:07:20.093Z,39.50
2019-02-27T11:09:47.132Z,40.40
2019-02-27T11:12:14.064Z,39.50
2019-02-27T11:14:41.007Z,39.20
2019-02-27T11:17:08.022Z,38.80
2019-02-27T11:19:36.844Z,38.70
2019-02-27T11:22:04.786Z,37.90
2019-02-27T11:24:31.706Z,37.60
2019-02-27T11:26:58.676Z,37.10
2019-02-27T11:29:25.613Z,36.60
2019-02-27T11:31:52.635Z,36.20
2019-02-27T11:34:19.682Z,35.20
2019-02-27T11:36:46.693Z,36.20
2019-02-27T11:39:13.629Z,35.30
2019-02-27T11:41:40.574Z,35.70
2019-02-27T11:44:07.530Z,35.80
2019-02-27T11:46:35.119Z,36.00
2019-02-27T11:49:03.459Z,34.70
2019-02-27T11:51:30.377Z,35.30
2019-02-27T11:53:57.317Z,35.80
2019-02-27T11:56:24.498Z,35.60
2019-02-27T11:58:51.465Z,36.30
2019-02-27T12:01:21.825Z,36.00
2019-02-27T12:03:47.220Z,35.60
2019-02-27T12:06:14.274Z,35.60
2019-02-27T12:08:41.249Z,35.50
2019-02-27T12:11:09.691Z,35.40
2019-02-27T12:13:36.998Z,35.10
2019-02-27T12:16:04.890Z,35.80
2019-02-27T12:18:32.203Z,35.90
2019-02-27T12:21:00.805Z,35.80
2019-02-27T12:23:27.740Z,35.70
2019-02-27T12:25:54.703Z,34.60
2019-02-27T12:28:22.352Z,34.80
2019-02-27T12:30:49.243Z,34.40
2019-02-27T12:33:16.199Z,34.30
2019-02-27T12:35:44.947Z,34.10
2019-02-27T12:38:12.066Z,33.70
2019-02-27T12:40:38.945Z,33.90
2019-02-27T12:43:05.904Z,32.60
2019-02-27T12:45:32.831Z,32.60
2019-02-27T12:47:59.860Z,32.60
2019-02-27T12:50:30.805Z,33.50
2019-02-27T12:52:55.963Z,33.10
2019-02-27T12:55:23.264Z,32.70
2019-02-27T12:57:52.337Z,33.00
2019-02-27T13:00:22.150Z,32.80
2019-02-27T13:02:49.100Z,32.90
2019-02-27T13:05:16.920Z,32.90
2019-02-27T13:07:44.714Z,33.00
2019-02-27T13:10:14.747Z,31.90
2019-02-27T13:12:41.703Z,31.70
2019-02-27T13:15:09.880Z,31.70
2019-02-27T13:17:36.743Z,31.50
2019-02-27T13:20:06.346Z,31.40
2019-02-27T13:22:33.405Z,31.50
2019-02-27T13:25:00.398Z,30.20
2019-02-27T13:27:27.398Z,30.10
2019-02-27T13:29:56.601Z,29.90
2019-02-27T13:32:26.410Z,30.00
2019-02-27T13:34:52.016Z,30.00
2019-02-27T13:37:19.041Z,29.90
2019-02-27T13:39:45.937Z,30.00
2019-02-27T13:42:13.207Z,30.40
2019-02-27T13:44:40.154Z,30.50
2019-02-27T13:47:07.085Z,30.70
2019-02-27T13:49:34.005Z,30.80
2019-02-27T13:52:00.976Z,30.70
2019-02-27T13:54:27.892Z,30.60
2019-02-27T13:56:55.013Z,31.30
2019-02-27T13:59:22.028Z,31.10
2019-02-27T14:01:50.813Z,31.30
2019-02-27T14:04:21.876Z,31.70
2019-02-27T14:06:47.493Z,31.10
2019-02-27T14:09:14.792Z,31.10
2019-02-27T14:11:41.704Z,30.40
2019-02-27T14:14:08.700Z,30.20
2019-02-27T14:16:36.316Z,30.50
2019-02-27T14:19:03.438Z,30.50
2019-02-27T14:21:35.296Z,31.20
2019-02-27T14:23:59.204Z,31.10
2019-02-27T14:26:26.237Z,31.00
2019-02-27T14:28:55.123Z,31.30
2019-02-27T14:31:22.106Z,31.40
2019-02-27T14:33:51.178Z,31.20
2019-02-27T14:36:18.072Z,31.00
2019-02-27T14:38:44.940Z,30.80
2019-02-27T14:41:14.532Z,30.00
2019-02-27T14:43:40.752Z,29.90
2019-02-27T14:46:07.762Z,29.80
2019-02-27T14:48:34.707Z,29.80
2019-02-27T14:51:01.757Z,29.70
2019-02-27T14:53:28.722Z,29.50
2019-02-27T14:55:55.748Z,29.30
2019-02-27T14:58:24.274Z,29.50
2019-02-27T15:00:51.680Z,29.70
2019-02-27T15:03:18.666Z,30.00
2019-02-27T15:05:45.646Z,29.90
2019-02-27T15:08:12.652Z,30.20
2019-02-27T15:10:41.098Z,30.00
2019-02-27T15:13:08.255Z,29.90
2019-02-27T15:15:35.206Z,30.00
2019-02-27T15:18:02.232Z,29.90
2019-02-27T15:20:29.142Z,30.00
2019-02-27T15:22:56.191Z,30.20
2019-02-27T15:25:23.213Z,30.20
2019-02-27T15:27:50.171Z,30.10
2019-02-27T15:30:19.177Z,30.00
2019-02-27T15:32:46.467Z,29.80
2019-02-27T15:35:13.382Z,29.90
2019-02-27T15:37:40.840Z,29.90
2019-02-27T15:40:08.913Z,29.90
2019-02-27T15:42:35.834Z,29.90
2019-02-27T15:45:09.165Z,29.90
2019-02-27T15:47:33.714Z,30.00
2019-02-27T15:50:02.605Z,30.20
2019-02-27T15:52:29.726Z,30.30
2019-02-27T15:55:00.420Z,30.40
2019-02-27T15:57:27.347Z,30.70
2019-02-27T15:59:56.696Z,31.00
2019-02-27T16:02:23.673Z,31.10
2019-02-27T16:04:55.473Z,31.00
2019-02-27T16:07:21.860Z,31.30
2019-02-27T16:09:51.300Z,31.20
2019-02-27T16:12:19.913Z,31.60
2019-02-27T16:14:55.768Z,31.50
2019-02-27T16:17:25.970Z,31.30
2019-02-27T16:19:54.129Z,31.10
2019-02-27T16:22:21.362Z,31.40
2019-02-27T16:24:48.776Z,31.40
2019-02-27T16:27:16.061Z,31.60
2019-02-27T16:29:42.978Z,31.60
2019-02-27T16:32:13.028Z,31.80
2019-02-27T16:34:39.643Z,31.90
2019-02-27T16:37:06.711Z,31.90
2019-02-27T16:39:33.952Z,32.20
2019-02-27T16:42:05.152Z,33.50
2019-02-27T16:44:31.743Z,33.30
2019-02-27T16:46:59.329Z,33.90
2019-02-27T16:49:26.497Z,34.50
2019-02-27T16:51:53.628Z,36.00
2019-02-27T16:54:20.519Z,37.20
2019-02-27T16:56:50.008Z,38.00
2019-02-27T16:59:16.511Z,38.60
2019-02-27T17:01:43.558Z,41.50
2019-02-27T17:04:11.406Z,41.80
2019-02-27T17:06:38.628Z,41.50
2019-02-27T17:09:07.195Z,41.90
2019-02-27T17:11:35.566Z,41.90
2019-02-27T17:14:02.861Z,41.90
2019-02-27T17:16:44.374Z,41.90
2019-02-27T17:19:13.686Z,42.90
2019-02-27T17:21:48.999Z,43.50
2019-02-27T17:24:28.374Z,44.80
2019-02-27T17:26:58.439Z,45.10
2019-02-27T17:29:41.253Z,45.00
2019-02-27T17:38:58.506Z,47.50
2019-02-27T17:41:38.353Z,48.20
2019-02-27T17:44:17.149Z,48.20
2019-02-27T17:47:08.740Z,48.10
2019-02-27T17:49:40.286Z,47.90
2019-02-27T17:52:22.954Z,48.70
2019-02-27T17:54:51.356Z,49.70
2019-02-27T17:57:34.287Z,49.20
2019-02-27T18:00:12.931Z,49.50
2019-02-27T18:02:43.491Z,49.50
2019-02-27T18:05:10.987Z,49.90
2019-02-27T18:07:40.318Z,50.20
2019-02-27T18:10:11.291Z,50.90
2019-02-27T18:13:13.471Z,51.00
2019-02-27T18:15:32.519Z,51.30
2019-02-27T18:17:59.650Z,51.70
2019-02-27T18:20:31.896Z,51.70
2019-02-27T18:23:01.075Z,51.60
2019-02-27T18:25:28.084Z,51.60
2019-02-27T18:27:58.703Z,51.90
2019-02-27T18:30:24.215Z,52.00
2019-02-27T18:32:51.227Z,52.10
2019-02-27T18:35:18.612Z,51.90
2019-02-27T18:37:45.767Z,51.80
2019-02-27T18:40:12.982Z,52.00
2019-02-27T18:42:40.010Z,52.40
2019-02-27T18:45:08.405Z,53.10
2019-02-27T18:47:35.896Z,53.70
2019-02-27T18:50:03.521Z,54.00
2019-02-27T18:52:30.642Z,53.70
2019-02-27T18:54:57.748Z,53.50
2019-02-27T18:57:24.673Z,54.00
2019-02-27T18:59:51.696Z,53.90
2019-02-27T19:02:20.640Z,54.40
2019-02-27T19:04:47.557Z,54.40
2019-02-27T19:07:17.326Z,54.40
2019-02-27T19:09:44.205Z,54.70
2019-02-27T19:12:11.105Z,55.90
2019-02-27T19:14:39.559Z,55.30
2019-02-27T19:17:06.553Z,56.00
2019-02-27T19:19:33.680Z,56.00
2019-02-27T19:22:00.823Z,56.40
2019-02-27T19:24:27.900Z,56.80
2019-02-27T19:26:54.910Z,56.90
2019-02-27T19:29:21.889Z,57.70
2019-02-27T19:31:51.633Z,57.20
2019-02-27T19:34:17.805Z,57.50
2019-02-27T19:36:45.072Z,57.80
2019-02-27T19:39:12.327Z,57.80
2019-02-27T19:41:39.787Z,57.80
2019-02-27T19:44:06.870Z,57.80
2019-02-27T19:46:33.933Z,57.80
2019-02-27T19:49:03.523Z,57.80
2019-02-27T19:51:29.713Z,57.70
2019-02-27T19:53:56.797Z,57.60
2019-02-27T19:56:23.998Z,58.40
2019-02-27T19:58:51.978Z,58.90
2019-02-27T20:01:24.804Z,59.40
2019-02-27T20:03:51.921Z,59.10
2019-02-27T20:06:18.901Z,59.60
2019-02-27T20:08:46.196Z,59.80
2019-02-27T20:11:13.413Z,59.40
2019-02-27T20:13:40.462Z,59.60
2019-02-27T20:16:07.531Z,59.70
2019-02-27T20:18:34.806Z,59.70
2019-02-27T20:21:02.026Z,59.50
2019-02-27T20:23:29.241Z,60.00
2019-02-27T20:25:56.636Z,60.90
2019-02-27T20:28:23.678Z,60.30
2019-02-27T20:30:50.803Z,60.30
2019-02-27T20:33:17.896Z,60.10
2019-02-27T20:35:45.027Z,60.80
2019-02-27T20:38:15.358Z,60.80
2019-02-27T20:40:42.351Z,60.90
2019-02-27T20:43:10.237Z,61.30
2019-02-27T20:45:37.241Z,62.10
2019-02-27T20:48:04.269Z,62.20
2019-02-27T20:50:35.181Z,61.70
2019-02-27T20:53:02.853Z,61.70
2019-02-27T20:55:30.957Z,62.00
2019-02-27T20:57:58.658Z,61.80
2019-02-27T21:00:26.003Z,61.30
2019-02-27T21:02:54.058Z,62.00
2019-02-27T21:05:21.750Z,62.10
2019-02-27T21:07:49.432Z,62.60
2019-02-27T21:10:20.994Z,62.80
2019-02-27T21:12:53.900Z,62.70
2019-02-27T21:15:15.440Z,62.30
2019-02-27T21:17:42.381Z,62.60
2019-02-27T21:20:11.952Z,62.30
2019-02-27T21:22:38.793Z,62.40
2019-02-27T21:25:05.994Z,62.40
2019-02-27T21:27:34.005Z,62.70
2019-02-27T21:30:01.024Z,63.30
2019-02-27T21:32:27.908Z,63.20
2019-02-27T21:34:55.151Z,63.10
2019-02-27T21:37:23.022Z,63.10
2019-02-27T21:39:50.053Z,63.50
2019-02-27T21:42:19.382Z,63.30
2019-02-27T21:44:45.866Z,63.10
2019-02-27T21:47:13.317Z,63.40
2019-02-27T21:49:40.276Z,63.60
2019-02-27T21:52:09.238Z,64.10
2019-02-27T21:54:39.250Z,64.50
2019-02-27T21:57:04.844Z,63.40
2019-02-27T21:59:31.727Z,62.70
2019-02-27T22:01:58.710Z,62.90
2019-02-27T22:04:25.752Z,63.20
2019-02-27T22:06:52.635Z,63.60
2019-02-27T22:09:19.511Z,64.60
2019-02-27T22:11:46.437Z,65.10
2019-02-27T22:14:16.683Z,65.20
2019-02-27T22:16:42.276Z,64.20
2019-02-27T22:19:09.213Z,63.70
2019-02-27T22:21:36.209Z,64.00
2019-02-27T22:24:03.334Z,65.00
2019-02-27T22:26:30.389Z,65.00
2019-02-27T22:28:57.472Z,64.90
2019-02-27T22:31:25.533Z,64.70
2019-02-27T22:33:53.160Z,65.30
2019-02-27T22:36:21.268Z,64.70
2019-02-27T22:38:48.236Z,64.70
2019-02-27T22:41:17.107Z,65.20
2019-02-27T22:43:43.989Z,64.70
2019-02-27T22:46:13.657Z,64.70
2019-02-27T22:48:39.839Z,64.80
2019-02-27T22:51:06.844Z,64.70
2019-02-27T22:53:33.879Z,64.80
2019-02-27T22:56:02.605Z,64.50
2019-02-27T22:58:31.341Z,65.40
2019-02-27T23:01:07.964Z,64.50
2019-02-27T23:03:39.114Z,65.50
2019-02-27T23:06:09.300Z,66.10
2019-02-27T23:08:37.849Z,65.60
2019-02-27T23:11:05.238Z,64.80
2019-02-27T23:13:32.312Z,65.00
2019-02-27T23:15:59.309Z,65.10
2019-02-27T23:18:26.204Z,65.80
2019-02-27T23:20:55.436Z,66.30
2019-02-27T23:23:21.886Z,66.80
2019-02-27T23:25:49.899Z,67.10
2019-02-27T23:28:16.862Z,65.80
2019-02-27T23:30:46.961Z,65.90
2019-02-27T23:33:12.652Z,65.90
2019-02-27T23:35:39.719Z,66.00
2019-02-27T23:38:08.563Z,65.50
2019-02-27T23:40:37.266Z,65.20
2019-02-27T23:43:04.286Z,65.50
2019-02-27T23:45:31.200Z,65.80
2019-02-27T23:48:02.201Z,65.70
2019-02-27T23:50:28.276Z,66.00
2019-02-27T23:52:55.525Z,66.10
2019-02-27T23:55:23.088Z,66.60
2019-02-27T23:57:50.052Z,65.80
